< Typhoon 195104 1951 Season Typhoon 195106 >
Typhoon 195105 (JOAN)
General InformationTrack Information on Google Maps || Disaster Info.ResourceGoogle EarthGE AnimationAtom FeedGeoJSON
Detalied Best Track (Time Zone = UTC)
Year Month Day Hour Lat. Long. Pressure (hPa) Wind (kt) Class Image Chart
1951 5 6 00 6.5 157.0 1005 0 2 -- Chart
1951 5 6 06 7.5 157.0 1003 0 2 -- Chart
1951 5 6 12 8.2 157.2 1003 0 2 -- Chart
1951 5 6 18 9.0 157.3 1003 0 2 -- Chart
1951 5 7 00 10.0 157.6 1000 0 2 -- Chart
1951 5 7 06 10.8 158.0 1000 0 2 -- Chart
1951 5 7 12 11.7 158.7 998 0 2 -- Chart
1951 5 7 18 12.4 159.4 995 0 2 -- Chart
1951 5 8 00 13.4 160.4 990 0 9 -- Chart
1951 5 8 06 13.7 160.7 980 0 9 -- Chart
1951 5 8 12 13.9 160.9 980 0 9 -- Chart
1951 5 8 18 14.1 161.1 985 0 9 -- Chart
1951 5 9 00 14.2 161.3 985 0 9 -- Chart
1951 5 9 06 13.7 161.1 985 0 9 -- Chart
1951 5 9 12 13.6 160.5 985 0 9 -- Chart
1951 5 9 18 13.6 159.8 988 0 9 -- Chart
1951 5 10 00 13.8 158.9 990 0 9 -- Chart
1951 5 10 06 14.2 157.8 993 0 9 -- Chart
1951 5 10 12 14.8 156.8 995 0 9 -- Chart
1951 5 10 18 15.5 155.9 1000 0 9 -- Chart
1951 5 11 00 16.6 155.4 1005 0 9 -- Chart
1951 5 11 06 17.6 155.0 1002 0 9 -- Chart
1951 5 11 12 18.5 154.5 1004 0 2 -- Chart
1951 5 11 18 19.4 153.8 1006 0 2 -- Chart
1951 5 12 00 20.2 153.3 1008 0 2 -- Chart
1951 5 12 06 21.0 152.8 1008 0 2 -- Chart
1951 5 12 12 21.8 152.4 1008 0 2 -- Chart
1951 5 12 18 22.6 152.3 1008 0 2 -- Chart
1951 5 13 00 23.5 152.4 1008 0 2 -- Chart
1951 5 13 06 24.2 153.0 1009 0 2 -- Chart
1951 5 13 12 25.0 153.8 1010 0 2 -- Chart
1951 5 13 18 25.9 155.0 1010 0 2 -- Chart
1951 5 14 00 27.1 156.0 1008 0 6 -- Chart
1951 5 14 06 28.1 157.1 1008 0 6 -- Chart
1951 5 14 12 29.0 158.1 1008 0 6 -- Chart
1951 5 14 18 31.0 160.0 1004 0 6 -- Chart
1951 5 15 00 34.0 162.1 1006 0 6 -- Chart
1951 5 15 06 35.8 164.7 1008 0 6 -- Chart
1951 5 15 12 37.0 167.0 1008 0 6 -- Chart
1951 5 15 18 38.0 170.1 1006 0 6 -- Chart
1951 5 16 00 38.9 172.5 1004 0 6 -- Chart
1951 5 16 06 39.8 174.8 1004 0 6 -- Chart
1951 5 16 12 40.5 176.9 1004 0 6 -- Chart
1951 5 16 18 41.0 178.9 990 0 6 -- Chart
1951 5 17 00 41.6 180.8 990 0 6 -- Chart
Japan Meteorological Agency Best Track Data | Correction Date : 1991-07-16
< Typhoon 195104 1951 Season Typhoon 195106 >

Help